Huvudsida
METAR-TAF:

METAR-TAF

Flygplatser :

Bodø flygplats

Bodö, Norge

latitud: 67-16N, longitud: 014-22E, höjd: 1 m

Aktuellt väderrapport

Denna rapport gjordes för 31 minuter sedan, klockan 14:20 UTC
Vind 14 kt från väst/sydväst
Temperatur 13°C
Fuktighet 51%
Tryck 1020 hPa
Sikt 10 km eller mer
Inga moln under 1 500 m eller inga cumulonimbus

METAR: ENBO 231420Z 24014KT CAVOK 13/03 Q1020 NOSIG

Tid: 16:51 (14:51 UTC)

Väderprognos

Prognos gäller från 23 kl. 12 UTC till 24 kl. 12 UTC
Vind 12 kt från väst/sydväst
Sikt 10 km eller mer
Inga moln under 1 500 m eller inga cumulonimbus
Blir
från 23 kl. 17 UTC till 23 kl. 19 UTC
Vind 8 kt från ost
Blir
från 24 kl. 00 UTC till 24 kl. 02 UTC
Vind 20 kt från ost

TAF: ENBO 2312/2412 24012KT CAVOK BECMG 2317/2319 10008KT BECMG 2400/2402 09020KT

Aktuella väderrapporter och prognoser från 4000 flygplatser (METAR- och TAF-rapporter).

De tillgängliga stationerna syns som gula och röda prickar på kartan.

För musen över prickarna för att se namnen på stationerna.

Klicka sedan för att få väderrapporter och prognoser.

För att ändra kartan: Klicka på de gröna knapparna med ett svart kors på för att zooma in; den gröna knappen med ett streck på för att zooma ut; eller på de gröna pilarna för angränsande kartor.


METAR-TAF: